sensor_id;sensor_type;location;lat;lon;timestamp;pressure;altitude;pressure_sealevel;temperature;humidity
5356;BME280;70449;52.486;13.386;2023-06-10T00:00:44;100996.25;;;19.43;100.00
5356;BME280;70449;52.486;13.386;2023-06-10T00:03:14;100995.88;;;19.81;100.00
5356;BME280;70449;52.486;13.386;2023-06-10T00:05:43;101002.19;;;20.06;100.00
5356;BME280;70449;52.486;13.386;2023-06-10T00:08:10;100999.47;;;19.82;100.00
5356;BME280;70449;52.486;13.386;2023-06-10T00:10:38;100994.13;;;19.89;100.00
5356;BME280;70449;52.486;13.386;2023-06-10T00:13:07;101000.75;;;19.35;100.00
5356;BME280;70449;52.486;13.386;2023-06-10T00:15:36;100984.25;;;18.93;100.00
5356;BME280;70449;52.486;13.386;2023-06-10T00:18:04;100992.28;;;19.19;100.00
5356;BME280;70449;52.486;13.386;2023-06-10T00:20:32;100988.59;;;19.52;100.00
5356;BME280;70449;52.486;13.386;2023-06-10T00:23:01;100997.38;;;19.30;100.00
5356;BME280;70449;52.486;13.386;2023-06-10T00:25:28;100993.56;;;19.34;100.00
5356;BME280;70449;52.486;13.386;2023-06-10T00:27:56;100981.75;;;19.37;100.00
5356;BME280;70449;52.486;13.386;2023-06-10T00:30:23;100971.88;;;18.91;100.00
5356;BME280;70449;52.486;13.386;2023-06-10T00:32:51;100985.66;;;19.12;100.00
5356;BME280;70449;52.486;13.386;2023-06-10T00:35:18;100991.00;;;19.29;100.00
5356;BME280;70449;52.486;13.386;2023-06-10T00:37:47;100996.00;;;19.36;100.00
5356;BME280;70449;52.486;13.386;2023-06-10T00:40:14;100996.00;;;19.36;100.00
5356;BME280;70449;52.486;13.386;2023-06-10T00:42:41;100988.34;;;19.33;100.00
5356;BME280;70449;52.486;13.386;2023-06-10T00:45:09;100981.06;;;19.28;100.00
5356;BME280;70449;52.486;13.386;2023-06-10T00:47:36;100985.28;;;19.01;100.00
5356;BME280;70449;52.486;13.386;2023-06-10T00:50:05;100983.47;;;19.30;100.00
5356;BME280;70449;52.486;13.386;2023-06-10T00:52:33;100982.66;;;19.17;100.00
5356;BME280;70449;52.486;13.386;2023-06-10T00:55:04;100986.59;;;19.16;100.00
5356;BME280;70449;52.486;13.386;2023-06-10T00:57:33;100991.34;;;18.70;100.00
5356;BME280;70449;52.486;13.386;2023-06-10T01:00:00;100987.63;;;18.99;100.00
5356;BME280;70449;52.486;13.386;2023-06-10T01:02:29;100993.53;;;19.10;100.00
5356;BME280;70449;52.486;13.386;2023-06-10T01:04:56;100995.28;;;19.02;100.00
5356;BME280;70449;52.486;13.386;2023-06-10T01:07:33;100995.97;;;19.11;100.00
5356;BME280;70449;52.486;13.386;2023-06-10T01:10:10;100999.47;;;19.20;100.00
5356;BME280;70449;52.486;13.386;2023-06-10T01:12:44;101005.81;;;19.21;100.00
5356;BME280;70449;52.486;13.386;2023-06-10T01:15:15;100997.03;;;19.19;100.00
5356;BME280;70449;52.486;13.386;2023-06-10T01:17:55;100999.81;;;19.56;100.00
5356;BME280;70449;52.486;13.386;2023-06-10T01:20:23;100996.81;;;19.73;100.00
5356;BME280;70449;52.486;13.386;2023-06-10T01:22:54;100999.97;;;19.72;100.00
5356;BME280;70449;52.486;13.386;2023-06-10T01:25:21;101000.25;;;19.33;100.00
5356;BME280;70449;52.486;13.386;2023-06-10T01:27:57;101001.16;;;19.13;100.00
5356;BME280;70449;52.486;13.386;2023-06-10T01:30:29;101010.13;;;19.31;100.00
5356;BME280;70449;52.486;13.386;2023-06-10T01:33:00;101003.75;;;19.30;100.00
5356;BME280;70449;52.486;13.386;2023-06-10T01:35:30;101005.16;;;19.48;100.00
5356;BME280;70449;52.486;13.386;2023-06-10T01:38:00;101011.84;;;19.47;100.00
5356;BME280;70449;52.486;13.386;2023-06-10T01:40:29;101012.13;;;19.67;100.00
5356;BME280;70449;52.486;13.386;2023-06-10T01:42:57;101010.88;;;19.07;100.00
5356;BME280;70449;52.486;13.386;2023-06-10T01:45:24;101004.53;;;19.06;100.00
5356;BME280;70449;52.486;13.386;2023-06-10T01:47:52;101011.38;;;19.21;100.00
5356;BME280;70449;52.486;13.386;2023-06-10T01:50:19;101009.75;;;19.20;100.00
5356;BME280;70449;52.486;13.386;2023-06-10T01:52:46;101007.00;;;19.44;100.00
5356;BME280;70449;52.486;13.386;2023-06-10T01:55:15;101004.47;;;19.39;100.00
5356;BME280;70449;52.486;13.386;2023-06-10T01:57:42;101015.53;;;19.02;100.00
5356;BME280;70449;52.486;13.386;2023-06-10T02:00:11;101005.59;;;19.14;100.00
5356;BME280;70449;52.486;13.386;2023-06-10T02:02:38;101005.34;;;19.07;100.00
5356;BME280;70449;52.486;13.386;2023-06-10T02:05:07;101007.84;;;18.87;100.00
5356;BME280;70449;52.486;13.386;2023-06-10T02:07:34;101007.47;;;19.22;100.00
5356;BME280;70449;52.486;13.386;2023-06-10T02:10:01;101007.41;;;19.10;100.00
5356;BME280;70449;52.486;13.386;2023-06-10T02:12:30;101011.38;;;19.09;100.00
5356;BME280;70449;52.486;13.386;2023-06-10T02:14:57;101012.97;;;18.97;100.00
5356;BME280;70449;52.486;13.386;2023-06-10T02:17:24;101012.16;;;19.09;100.00
5356;BME280;70449;52.486;13.386;2023-06-10T02:19:52;101022.25;;;19.01;100.00
5356;BME280;70449;52.486;13.386;2023-06-10T02:22:21;101028.25;;;19.03;100.00
5356;BME280;70449;52.486;13.386;2023-06-10T02:24:49;101019.66;;;18.63;100.00
5356;BME280;70449;52.486;13.386;2023-06-10T02:27:17;101016.88;;;18.84;100.00
5356;BME280;70449;52.486;13.386;2023-06-10T02:29:46;101025.25;;;18.96;100.00
5356;BME280;70449;52.486;13.386;2023-06-10T02:32:13;101021.78;;;18.99;100.00
5356;BME280;70449;52.486;13.386;2023-06-10T02:34:40;101015.72;;;18.85;100.00
5356;BME280;70449;52.486;13.386;2023-06-10T02:37:09;101020.06;;;18.74;100.00
5356;BME280;70449;52.486;13.386;2023-06-10T02:39:36;101026.03;;;18.64;100.00
5356;BME280;70449;52.486;13.386;2023-06-10T02:42:04;101022.66;;;18.79;100.00
5356;BME280;70449;52.486;13.386;2023-06-10T02:44:32;101020.00;;;18.83;100.00
5356;BME280;70449;52.486;13.386;2023-06-10T02:47:01;101023.16;;;18.93;100.00
5356;BME280;70449;52.486;13.386;2023-06-10T02:49:28;101022.47;;;18.96;100.00
5356;BME280;70449;52.486;13.386;2023-06-10T02:51:55;101022.69;;;19.03;100.00
5356;BME280;70449;52.486;13.386;2023-06-10T02:54:23;101023.84;;;18.90;100.00
5356;BME280;70449;52.486;13.386;2023-06-10T02:56:52;101022.75;;;18.83;100.00
5356;BME280;70449;52.486;13.386;2023-06-10T02:59:21;101023.38;;;18.67;100.00
5356;BME280;70449;52.486;13.386;2023-06-10T03:01:49;101021.13;;;19.27;100.00
5356;BME280;70449;52.486;13.386;2023-06-10T03:04:17;101032.19;;;19.02;100.00
5356;BME280;70449;52.486;13.386;2023-06-10T03:06:44;101026.50;;;18.87;100.00
5356;BME280;70449;52.486;13.386;2023-06-10T03:09:12;101027.59;;;18.52;100.00
5356;BME280;70449;52.486;13.386;2023-06-10T03:11:41;101035.50;;;18.63;100.00
5356;BME280;70449;52.486;13.386;2023-06-10T03:14:08;101029.81;;;18.80;100.00
5356;BME280;70449;52.486;13.386;2023-06-10T03:16:35;101031.56;;;18.85;100.00
5356;BME280;70449;52.486;13.386;2023-06-10T03:19:06;101031.81;;;18.92;100.00
5356;BME280;70449;52.486;13.386;2023-06-10T03:21:34;101022.34;;;18.72;100.00
5356;BME280;70449;52.486;13.386;2023-06-10T03:24:03;101031.59;;;18.64;100.00
5356;BME280;70449;52.486;13.386;2023-06-10T03:26:31;101026.16;;;18.67;100.00
5356;BME280;70449;52.486;13.386;2023-06-10T03:28:58;101029.53;;;18.73;100.00
5356;BME280;70449;52.486;13.386;2023-06-10T03:31:26;101032.53;;;18.68;100.00
5356;BME280;70449;52.486;13.386;2023-06-10T03:33:53;101028.72;;;18.93;100.00
5356;BME280;70449;52.486;13.386;2023-06-10T03:36:22;101038.78;;;18.98;100.00
5356;BME280;70449;52.486;13.386;2023-06-10T03:38:51;101036.56;;;18.91;100.00
5356;BME280;70449;52.486;13.386;2023-06-10T03:41:19;101029.22;;;19.08;100.00
5356;BME280;70449;52.486;13.386;2023-06-10T03:43:47;101038.06;;;18.89;100.00
5356;BME280;70449;52.486;13.386;2023-06-10T03:46:14;101037.28;;;19.13;100.00
5356;BME280;70449;52.486;13.386;2023-06-10T03:48:44;101042.13;;;18.91;100.00
5356;BME280;70449;52.486;13.386;2023-06-10T03:51:11;101037.53;;;18.95;100.00
5356;BME280;70449;52.486;13.386;2023-06-10T03:53:38;101037.13;;;18.85;100.00
5356;BME280;70449;52.486;13.386;2023-06-10T03:56:06;101044.72;;;19.21;100.00
5356;BME280;70449;52.486;13.386;2023-06-10T03:58:33;101038.66;;;18.94;100.00
5356;BME280;70449;52.486;13.386;2023-06-10T04:01:01;101043.72;;;18.92;100.00
5356;BME280;70449;52.486;13.386;2023-06-10T04:03:28;101046.81;;;19.12;100.00
5356;BME280;70449;52.486;13.386;2023-06-10T04:05:55;101048.66;;;19.08;100.00
5356;BME280;70449;52.486;13.386;2023-06-10T04:08:22;101049.78;;;19.07;100.00
5356;BME280;70449;52.486;13.386;2023-06-10T04:10:50;101050.50;;;19.16;100.00
5356;BME280;70449;52.486;13.386;2023-06-10T04:13:18;101052.34;;;18.99;100.00
5356;BME280;70449;52.486;13.386;2023-06-10T04:15:46;101059.53;;;19.13;100.00
5356;BME280;70449;52.486;13.386;2023-06-10T04:18:13;101057.94;;;19.24;100.00
5356;BME280;70449;52.486;13.386;2023-06-10T04:20:41;101052.63;;;19.19;100.00
5356;BME280;70449;52.486;13.386;2023-06-10T04:23:08;101045.00;;;19.28;100.00
5356;BME280;70449;52.486;13.386;2023-06-10T04:25:35;101038.84;;;19.35;100.00
5356;BME280;70449;52.486;13.386;2023-06-10T04:28:05;101042.91;;;19.49;100.00
5356;BME280;70449;52.486;13.386;2023-06-10T04:30:33;101048.28;;;19.09;100.00
5356;BME280;70449;52.486;13.386;2023-06-10T04:33:00;101047.88;;;19.19;100.00
5356;BME280;70449;52.486;13.386;2023-06-10T04:35:28;101051.94;;;19.46;100.00
5356;BME280;70449;52.486;13.386;2023-06-10T04:37:55;101055.91;;;19.45;100.00
5356;BME280;70449;52.486;13.386;2023-06-10T04:40:23;101059.47;;;18.88;100.00
5356;BME280;70449;52.486;13.386;2023-06-10T04:42:51;101076.13;;;18.88;100.00
5356;BME280;70449;52.486;13.386;2023-06-10T04:45:18;101080.31;;;18.94;100.00
5356;BME280;70449;52.486;13.386;2023-06-10T04:47:47;101064.94;;;19.42;100.00
5356;BME280;70449;52.486;13.386;2023-06-10T04:50:15;101076.59;;;19.36;100.00
5356;BME280;70449;52.486;13.386;2023-06-10T04:52:45;101074.03;;;19.18;100.00
5356;BME280;70449;52.486;13.386;2023-06-10T04:55:15;101077.66;;;19.31;100.00
5356;BME280;70449;52.486;13.386;2023-06-10T04:57:42;101076.34;;;19.16;100.00
5356;BME280;70449;52.486;13.386;2023-06-10T05:00:11;101078.16;;;19.45;100.00
5356;BME280;70449;52.486;13.386;2023-06-10T05:02:41;101071.53;;;19.38;100.00
5356;BME280;70449;52.486;13.386;2023-06-10T05:05:10;101081.13;;;19.40;100.00
5356;BME280;70449;52.486;13.386;2023-06-10T05:07:37;101077.44;;;19.48;100.00
5356;BME280;70449;52.486;13.386;2023-06-10T05:10:15;101075.59;;;19.53;100.00
5356;BME280;70449;52.486;13.386;2023-06-10T05:12:45;101088.09;;;19.46;100.00
5356;BME280;70449;52.486;13.386;2023-06-10T05:15:13;101076.28;;;19.49;100.00
5356;BME280;70449;52.486;13.386;2023-06-10T05:17:40;101085.00;;;19.60;100.00
5356;BME280;70449;52.486;13.386;2023-06-10T05:20:11;101083.28;;;19.80;100.00
5356;BME280;70449;52.486;13.386;2023-06-10T05:22:39;101074.38;;;19.87;100.00
5356;BME280;70449;52.486;13.386;2023-06-10T05:25:07;101080.72;;;19.63;100.00
5356;BME280;70449;52.486;13.386;2023-06-10T05:27:34;101085.59;;;19.78;100.00
5356;BME280;70449;52.486;13.386;2023-06-10T05:30:02;101091.63;;;19.80;100.00
5356;BME280;70449;52.486;13.386;2023-06-10T05:32:29;101092.53;;;19.97;100.00
5356;BME280;70449;52.486;13.386;2023-06-10T05:34:56;101086.75;;;19.89;100.00
5356;BME280;70449;52.486;13.386;2023-06-10T05:37:24;101088.66;;;20.38;100.00
5356;BME280;70449;52.486;13.386;2023-06-10T05:39:52;101082.59;;;20.48;100.00
5356;BME280;70449;52.486;13.386;2023-06-10T05:42:43;101091.19;;;20.55;100.00
5356;BME280;70449;52.486;13.386;2023-06-10T05:45:40;101093.53;;;20.81;100.00
5356;BME280;70449;52.486;13.386;2023-06-10T05:48:11;101090.56;;;20.62;100.00
5356;BME280;70449;52.486;13.386;2023-06-10T05:50:39;101086.97;;;20.21;100.00
5356;BME280;70449;52.486;13.386;2023-06-10T05:53:09;101087.56;;;20.95;100.00
5356;BME280;70449;52.486;13.386;2023-06-10T05:55:41;101089.66;;;21.14;100.00
5356;BME280;70449;52.486;13.386;2023-06-10T05:58:08;101093.63;;;20.85;100.00
5356;BME280;70449;52.486;13.386;2023-06-10T06:00:35;101092.28;;;21.23;100.00
5356;BME280;70449;52.486;13.386;2023-06-10T06:03:08;101092.00;;;21.56;100.00
5356;BME280;70449;52.486;13.386;2023-06-10T06:05:36;101087.19;;;21.72;100.00
5356;BME280;70449;52.486;13.386;2023-06-10T06:08:04;101093.69;;;21.61;100.00
5356;BME280;70449;52.486;13.386;2023-06-10T06:10:33;101095.06;;;22.02;100.00
5356;BME280;70449;52.486;13.386;2023-06-10T06:13:01;101098.84;;;22.26;100.00
5356;BME280;70449;52.486;13.386;2023-06-10T06:15:29;101097.56;;;22.39;100.00
5356;BME280;70449;52.486;13.386;2023-06-10T06:17:59;101095.94;;;22.38;100.00
5356;BME280;70449;52.486;13.386;2023-06-10T06:20:26;101098.28;;;22.36;100.00
5356;BME280;70449;52.486;13.386;2023-06-10T06:22:54;101104.91;;;21.96;100.00
5356;BME280;70449;52.486;13.386;2023-06-10T06:25:21;101107.88;;;22.19;100.00
5356;BME280;70449;52.486;13.386;2023-06-10T06:27:50;101110.66;;;22.54;100.00
5356;BME280;70449;52.486;13.386;2023-06-10T06:30:33;101106.97;;;22.70;100.00
5356;BME280;70449;52.486;13.386;2023-06-10T06:33:01;101106.69;;;22.94;100.00
5356;BME280;70449;52.486;13.386;2023-06-10T06:35:30;101107.88;;;22.74;100.00
5356;BME280;70449;52.486;13.386;2023-06-10T06:37:58;101108.47;;;22.83;100.00
5356;BME280;70449;52.486;13.386;2023-06-10T06:40:25;101112.06;;;23.45;100.00
5356;BME280;70449;52.486;13.386;2023-06-10T06:42:54;101097.03;;;22.92;100.00
5356;BME280;70449;52.486;13.386;2023-06-10T06:45:22;101108.09;;;23.69;100.00
5356;BME280;70449;52.486;13.386;2023-06-10T06:47:49;101107.44;;;23.76;100.00
5356;BME280;70449;52.486;13.386;2023-06-10T06:50:17;101112.53;;;23.70;100.00
5356;BME280;70449;52.486;13.386;2023-06-10T06:52:44;101119.19;;;23.66;100.00
5356;BME280;70449;52.486;13.386;2023-06-10T06:55:11;101121.44;;;23.57;100.00
5356;BME280;70449;52.486;13.386;2023-06-10T06:57:40;101127.09;;;23.60;100.00
5356;BME280;70449;52.486;13.386;2023-06-10T07:00:11;101125.31;;;23.48;100.00
5356;BME280;70449;52.486;13.386;2023-06-10T07:02:38;101121.00;;;24.27;100.00
5356;BME280;70449;52.486;13.386;2023-06-10T07:05:07;101123.81;;;24.01;100.00
5356;BME280;70449;52.486;13.386;2023-06-10T07:07:35;101123.94;;;24.08;100.00
5356;BME280;70449;52.486;13.386;2023-06-10T07:10:02;101131.56;;;23.84;100.00
5356;BME280;70449;52.486;13.386;2023-06-10T07:12:30;101131.31;;;24.19;100.00
5356;BME280;70449;52.486;13.386;2023-06-10T07:14:57;101132.88;;;24.17;100.00
5356;BME280;70449;52.486;13.386;2023-06-10T07:17:27;101131.88;;;24.59;100.00
5356;BME280;70449;52.486;13.386;2023-06-10T07:19:54;101125.69;;;24.76;100.00
5356;BME280;70449;52.486;13.386;2023-06-10T07:22:23;101128.75;;;24.37;100.00
5356;BME280;70449;52.486;13.386;2023-06-10T07:24:50;101133.94;;;24.35;100.00
5356;BME280;70449;52.486;13.386;2023-06-10T07:27:20;101134.06;;;24.42;100.00
5356;BME280;70449;52.486;13.386;2023-06-10T07:29:47;101139.22;;;24.14;100.00
5356;BME280;70449;52.486;13.386;2023-06-10T07:32:15;101127.94;;;24.63;100.00
5356;BME280;70449;52.486;13.386;2023-06-10T07:34:43;101138.81;;;24.99;100.00
5356;BME280;70449;52.486;13.386;2023-06-10T07:37:11;101146.00;;;25.00;100.00
5356;BME280;70449;52.486;13.386;2023-06-10T07:39:38;101150.28;;;24.86;100.00
5356;BME280;70449;52.486;13.386;2023-06-10T07:42:06;101150.19;;;25.13;100.00
5356;BME280;70449;52.486;13.386;2023-06-10T07:44:34;101144.06;;;25.04;100.00
5356;BME280;70449;52.486;13.386;2023-06-10T07:47:01;101144.78;;;25.27;100.00
5356;BME280;70449;52.486;13.386;2023-06-10T07:49:28;101139.63;;;25.03;100.00
5356;BME280;70449;52.486;13.386;2023-06-10T07:52:00;101143.06;;;25.19;100.00
5356;BME280;70449;52.486;13.386;2023-06-10T07:54:27;101145.19;;;24.96;100.00
5356;BME280;70449;52.486;13.386;2023-06-10T07:56:56;101144.81;;;24.67;100.00
5356;BME280;70449;52.486;13.386;2023-06-10T07:59:25;101144.38;;;25.29;100.00
5356;BME280;70449;52.486;13.386;2023-06-10T08:01:53;101145.75;;;24.78;100.00
5356;BME280;70449;52.486;13.386;2023-06-10T08:04:21;101146.59;;;24.82;100.00
5356;BME280;70449;52.486;13.386;2023-06-10T08:06:48;101146.78;;;24.97;100.00
5356;BME280;70449;52.486;13.386;2023-06-10T08:09:16;101144.41;;;25.32;100.00
5356;BME280;70449;52.486;13.386;2023-06-10T08:11:46;101144.38;;;25.70;100.00
5356;BME280;70449;52.486;13.386;2023-06-10T08:14:13;101150.75;;;25.67;100.00
5356;BME280;70449;52.486;13.386;2023-06-10T08:16:41;101148.03;;;26.26;100.00
5356;BME280;70449;52.486;13.386;2023-06-10T08:19:08;101153.41;;;25.90;100.00
5356;BME280;70449;52.486;13.386;2023-06-10T08:21:35;101151.78;;;25.89;100.00
5356;BME280;70449;52.486;13.386;2023-06-10T08:24:06;101147.00;;;25.93;100.00
5356;BME280;70449;52.486;13.386;2023-06-10T08:26:34;101152.84;;;26.21;100.00
5356;BME280;70449;52.486;13.386;2023-06-10T08:29:02;101153.88;;;26.54;100.00
5356;BME280;70449;52.486;13.386;2023-06-10T08:31:29;101157.41;;;26.48;100.00
5356;BME280;70449;52.486;13.386;2023-06-10T08:33:56;101158.72;;;26.64;100.00
5356;BME280;70449;52.486;13.386;2023-06-10T08:36:23;101154.06;;;26.97;100.00
5356;BME280;70449;52.486;13.386;2023-06-10T08:38:51;101155.25;;;27.00;100.00
5356;BME280;70449;52.486;13.386;2023-06-10T08:41:18;101153.09;;;26.64;100.00
5356;BME280;70449;52.486;13.386;2023-06-10T08:43:54;101149.00;;;27.49;96.77
5356;BME280;70449;52.486;13.386;2023-06-10T08:46:27;101159.88;;;27.65;94.83
5356;BME280;70449;52.486;13.386;2023-06-10T08:48:58;101162.94;;;27.06;98.54
5356;BME280;70449;52.486;13.386;2023-06-10T08:51:27;101161.44;;;27.34;97.35
5356;BME280;70449;52.486;13.386;2023-06-10T08:54:05;101172.50;;;26.91;100.00
5356;BME280;70449;52.486;13.386;2023-06-10T08:56:39;101162.97;;;27.13;98.72
5356;BME280;70449;52.486;13.386;2023-06-10T08:59:09;101165.53;;;27.62;96.44
5356;BME280;70449;52.486;13.386;2023-06-10T09:01:37;101169.06;;;27.33;95.85
5356;BME280;70449;52.486;13.386;2023-06-10T09:04:05;101156.31;;;27.79;91.27
5356;BME280;70449;52.486;13.386;2023-06-10T09:06:33;101154.28;;;27.94;91.42
5356;BME280;70449;52.486;13.386;2023-06-10T09:09:02;101152.66;;;27.93;91.11
5356;BME280;70449;52.486;13.386;2023-06-10T09:11:29;101151.00;;;28.31;88.86
5356;BME280;70449;52.486;13.386;2023-06-10T09:13:57;101150.09;;;28.84;86.18
5356;BME280;70449;52.486;13.386;2023-06-10T09:16:26;101142.72;;;29.12;83.91
5356;BME280;70449;52.486;13.386;2023-06-10T09:18:53;101146.06;;;28.85;84.02
5356;BME280;70449;52.486;13.386;2023-06-10T09:21:22;101151.78;;;28.64;85.62
5356;BME280;70449;52.486;13.386;2023-06-10T09:23:50;101151.03;;;28.20;87.43
5356;BME280;70449;52.486;13.386;2023-06-10T09:26:17;101151.06;;;28.10;88.29
5356;BME280;70449;52.486;13.386;2023-06-10T09:28:48;101154.09;;;28.83;84.89
5356;BME280;70449;52.486;13.386;2023-06-10T09:31:17;101149.31;;;28.73;83.51
5356;BME280;70449;52.486;13.386;2023-06-10T09:33:49;101150.84;;;29.03;82.28
5356;BME280;70449;52.486;13.386;2023-06-10T09:36:22;101142.69;;;29.15;82.53
5356;BME280;70449;52.486;13.386;2023-06-10T09:38:50;101149.13;;;29.23;81.46
5356;BME280;70449;52.486;13.386;2023-06-10T09:41:17;101157.28;;;29.00;82.06
5356;BME280;70449;52.486;13.386;2023-06-10T09:43:46;101158.28;;;28.46;85.55
5356;BME280;70449;52.486;13.386;2023-06-10T09:46:15;101151.81;;;28.46;86.23
5356;BME280;70449;52.486;13.386;2023-06-10T09:48:45;101162.31;;;28.10;86.74
5356;BME280;70449;52.486;13.386;2023-06-10T09:51:14;101183.94;;;27.34;93.37
5356;BME280;70449;52.486;13.386;2023-06-10T09:53:42;101185.34;;;26.85;96.57
5356;BME280;70449;52.486;13.386;2023-06-10T09:56:10;101178.81;;;26.59;99.18
5356;BME280;70449;52.486;13.386;2023-06-10T09:58:38;101175.72;;;26.89;98.22
5356;BME280;70449;52.486;13.386;2023-06-10T10:01:10;101184.47;;;26.66;98.15
5356;BME280;70449;52.486;13.386;2023-06-10T10:03:45;101173.00;;;27.07;94.66
5356;BME280;70449;52.486;13.386;2023-06-10T10:06:15;101177.25;;;26.69;97.92
5356;BME280;70449;52.486;13.386;2023-06-10T10:08:42;101179.59;;;26.60;97.14
5356;BME280;70449;52.486;13.386;2023-06-10T10:11:10;101164.88;;;26.22;98.83
5356;BME280;70449;52.486;13.386;2023-06-10T10:13:38;101172.50;;;26.91;94.54
5356;BME280;70449;52.486;13.386;2023-06-10T10:16:10;101178.81;;;26.59;94.11
5356;BME280;70449;52.486;13.386;2023-06-10T10:18:41;101171.75;;;26.98;90.32
5356;BME280;70449;52.486;13.386;2023-06-10T10:21:15;101171.31;;;26.88;88.33
5356;BME280;70449;52.486;13.386;2023-06-10T10:23:50;101167.72;;;26.99;88.14
5356;BME280;70449;52.486;13.386;2023-06-10T10:26:21;101169.22;;;26.71;88.49
5356;BME280;70449;52.486;13.386;2023-06-10T10:28:59;101160.47;;;26.90;87.17
5356;BME280;70449;52.486;13.386;2023-06-10T10:31:33;101170.59;;;27.09;86.16
5356;BME280;70449;52.486;13.386;2023-06-10T10:34:07;101166.25;;;27.37;83.21
5356;BME280;70449;52.486;13.386;2023-06-10T10:36:37;101171.38;;;27.06;83.37
5356;BME280;70449;52.486;13.386;2023-06-10T10:39:05;101167.91;;;27.67;79.10
5356;BME280;70449;52.486;13.386;2023-06-10T10:41:34;101155.41;;;27.39;75.54
5356;BME280;70449;52.486;13.386;2023-06-10T10:44:04;101162.22;;;27.24;72.83
5356;BME280;70449;52.486;13.386;2023-06-10T10:46:42;101159.00;;;27.25;68.90
5356;BME280;70449;52.486;13.386;2023-06-10T10:49:11;101156.66;;;27.67;65.34
5356;BME280;70449;52.486;13.386;2023-06-10T10:51:56;101150.63;;;27.72;64.26
5356;BME280;70449;52.486;13.386;2023-06-10T10:54:31;101144.63;;;27.80;63.16
5356;BME280;70449;52.486;13.386;2023-06-10T10:57:13;101145.44;;;28.02;62.92
5356;BME280;70449;52.486;13.386;2023-06-10T10:59:54;101136.94;;;28.24;60.31
5356;BME280;70449;52.486;13.386;2023-06-10T11:02:35;101137.56;;;28.89;59.15
5356;BME280;70449;52.486;13.386;2023-06-10T11:05:06;101128.44;;;29.41;56.81
5356;BME280;70449;52.486;13.386;2023-06-10T11:07:35;101126.47;;;29.34;54.89
5356;BME280;70449;52.486;13.386;2023-06-10T11:10:06;101121.28;;;29.25;55.76
5356;BME280;70449;52.486;13.386;2023-06-10T11:12:42;101121.00;;;28.94;55.01
5356;BME280;70449;52.486;13.386;2023-06-10T11:15:19;101121.53;;;29.45;53.63
5356;BME280;70449;52.486;13.386;2023-06-10T11:18:09;101118.34;;;28.52;55.64
5356;BME280;70449;52.486;13.386;2023-06-10T11:20:45;101117.56;;;29.35;52.25
5356;BME280;70449;52.486;13.386;2023-06-10T11:23:42;101116.75;;;29.38;52.29
5356;BME280;70449;52.486;13.386;2023-06-10T11:26:19;101111.09;;;29.38;52.95
5356;BME280;70449;52.486;13.386;2023-06-10T11:29:09;101113.41;;;30.03;51.44
5356;BME280;70449;52.486;13.386;2023-06-10T11:31:43;101120.31;;;30.40;49.78
5356;BME280;70449;52.486;13.386;2023-06-10T11:34:12;101112.31;;;30.65;48.84
5356;BME280;70449;52.486;13.386;2023-06-10T11:36:43;101108.28;;;31.28;48.58
5356;BME280;70449;52.486;13.386;2023-06-10T11:39:15;101103.22;;;31.66;47.51
5356;BME280;70449;52.486;13.386;2023-06-10T11:41:42;101099.59;;;31.66;45.25
5356;BME280;70449;52.486;13.386;2023-06-10T11:44:11;101103.56;;;31.17;46.16
5356;BME280;70449;52.486;13.386;2023-06-10T11:46:40;101109.22;;;31.17;43.66
5356;BME280;70449;52.486;13.386;2023-06-10T11:49:09;101100.22;;;31.77;43.50
5356;BME280;70449;52.486;13.386;2023-06-10T11:51:38;101101.91;;;31.47;44.82
5356;BME280;70449;52.486;13.386;2023-06-10T11:54:08;101096.47;;;32.07;43.32
5356;BME280;70449;52.486;13.386;2023-06-10T11:56:37;101099.69;;;32.29;43.88
5356;BME280;70449;52.486;13.386;2023-06-10T11:59:05;101097.19;;;31.88;44.17
5356;BME280;70449;52.486;13.386;2023-06-10T12:01:36;101087.84;;;31.91;44.28
5356;BME280;70449;52.486;13.386;2023-06-10T12:04:05;101093.06;;;31.69;46.06
5356;BME280;70449;52.486;13.386;2023-06-10T12:06:43;101080.88;;;31.72;45.65
5356;BME280;70449;52.486;13.386;2023-06-10T12:09:17;101084.81;;;32.01;46.07
5356;BME280;70449;52.486;13.386;2023-06-10T12:11:50;101090.59;;;31.71;46.31
5356;BME280;70449;52.486;13.386;2023-06-10T12:14:52;101104.72;;;31.51;49.40
5356;BME280;70449;52.486;13.386;2023-06-10T12:17:21;101108.69;;;30.99;52.86
5356;BME280;70449;52.486;13.386;2023-06-10T12:19:49;101105.03;;;31.80;49.79
5356;BME280;70449;52.486;13.386;2023-06-10T12:22:17;101106.47;;;31.65;47.82
5356;BME280;70449;52.486;13.386;2023-06-10T12:24:57;101101.69;;;31.85;47.18
5356;BME280;70449;52.486;13.386;2023-06-10T12:27:28;101104.41;;;32.16;44.58
5356;BME280;70449;52.486;13.386;2023-06-10T12:29:55;101098.19;;;32.01;45.29
5356;BME280;70449;52.486;13.386;2023-06-10T12:32:36;101092.19;;;32.19;43.68
5356;BME280;70449;52.486;13.386;2023-06-10T12:35:05;101091.78;;;31.97;45.17
5356;BME280;70449;52.486;13.386;2023-06-10T12:37:35;101088.34;;;32.69;44.93
5356;BME280;70449;52.486;13.386;2023-06-10T12:40:05;101087.28;;;32.63;44.77
5356;BME280;70449;52.486;13.386;2023-06-10T12:42:35;101085.31;;;33.16;44.59
5356;BME280;70449;52.486;13.386;2023-06-10T12:45:04;101078.91;;;33.12;45.12
5356;BME280;70449;52.486;13.386;2023-06-10T12:47:37;101078.81;;;32.39;46.66
5356;BME280;70449;52.486;13.386;2023-06-10T12:50:06;101065.97;;;31.91;48.04
5356;BME280;70449;52.486;13.386;2023-06-10T12:52:34;101059.25;;;33.54;45.42
5356;BME280;70449;52.486;13.386;2023-06-10T12:55:01;101063.03;;;32.58;46.55